createdAt,value
2023-01-11T00:00:40.128Z,2.73
2023-01-11T00:03:17.546Z,2.88
2023-01-11T00:05:45.526Z,2.97
2023-01-11T00:08:12.889Z,2.75
2023-01-11T00:10:41.260Z,2.84
2023-01-11T00:13:08.574Z,2.66
2023-01-11T00:15:38.189Z,2.84
2023-01-11T00:18:06.095Z,2.75
2023-01-11T00:20:33.150Z,2.66
2023-01-11T00:23:00.594Z,2.64
2023-01-11T00:25:27.754Z,2.42
2023-01-11T00:27:55.427Z,2.57
2023-01-11T00:30:22.523Z,2.71
2023-01-11T00:32:50.059Z,2.73
2023-01-11T00:35:17.100Z,2.82
2023-01-11T00:37:44.569Z,2.86
2023-01-11T00:40:12.028Z,2.72
2023-01-11T00:42:58.051Z,2.85
2023-01-11T00:46:03.777Z,3.02
2023-01-11T00:48:31.154Z,3.00
2023-01-11T00:50:59.272Z,2.84
2023-01-11T00:53:26.567Z,2.96
2023-01-11T00:55:53.555Z,3.00
2023-01-11T00:58:20.917Z,2.99
2023-01-11T01:00:47.958Z,3.03
2023-01-11T01:03:15.269Z,2.99
2023-01-11T01:05:42.461Z,3.09
2023-01-11T01:08:10.117Z,3.05
2023-01-11T01:10:37.188Z,3.09
2023-01-11T01:13:23.055Z,3.14
2023-01-11T01:15:57.714Z,3.04
2023-01-11T01:18:25.073Z,3.10
2023-01-11T01:20:52.113Z,3.10
2023-01-11T01:23:19.465Z,3.16
2023-01-11T01:25:46.455Z,3.04
2023-01-11T01:28:13.848Z,3.02
2023-01-11T01:30:41.253Z,3.02
2023-01-11T01:33:08.725Z,3.02
2023-01-11T01:35:38.256Z,3.10
2023-01-11T01:38:05.710Z,3.01
2023-01-11T01:40:32.683Z,3.18
2023-01-11T01:43:00.004Z,3.15
2023-01-11T01:45:28.919Z,2.97
2023-01-11T01:48:02.497Z,3.00
2023-01-11T01:50:55.283Z,3.01
2023-01-11T01:53:32.980Z,3.01
2023-01-11T01:56:03.218Z,2.96
2023-01-11T01:58:36.784Z,2.96
2023-01-11T02:01:22.881Z,3.01
2023-01-11T02:03:51.971Z,2.96
2023-01-11T02:06:22.670Z,2.90
2023-01-11T02:08:59.779Z,2.97
2023-01-11T02:11:30.849Z,2.89
2023-01-11T02:14:09.433Z,2.95
2023-01-11T02:16:36.547Z,2.81
2023-01-11T02:19:05.805Z,2.90
2023-01-11T02:21:38.903Z,2.78
2023-01-11T02:24:26.728Z,2.66
2023-01-11T02:26:59.020Z,2.56
2023-01-11T02:29:32.940Z,2.57
2023-01-11T02:32:29.020Z,2.44
2023-01-11T02:35:05.235Z,2.53
2023-01-11T02:38:03.091Z,2.47
2023-01-11T02:40:42.443Z,2.41
2023-01-11T02:43:37.233Z,2.37
2023-01-11T02:46:30.479Z,2.38
2023-01-11T02:49:24.401Z,2.33
2023-01-11T02:52:19.239Z,2.41
2023-01-11T02:54:54.557Z,2.33
2023-01-11T02:57:22.989Z,2.25
2023-01-11T02:59:51.180Z,2.39
2023-01-11T03:02:18.633Z,2.26
2023-01-11T03:04:46.025Z,2.21
2023-01-11T03:07:35.150Z,2.25
2023-01-11T03:10:23.814Z,2.35
2023-01-11T03:12:57.123Z,2.28
2023-01-11T03:15:49.121Z,2.27
2023-01-11T03:18:41.495Z,2.33
2023-01-11T03:21:27.325Z,2.31
2023-01-11T03:24:12.663Z,2.35
2023-01-11T03:27:01.512Z,2.30
2023-01-11T03:29:35.762Z,2.30
2023-01-11T03:32:36.709Z,2.20
2023-01-11T03:35:28.247Z,2.20
2023-01-11T03:38:07.294Z,2.16
2023-01-11T03:40:46.653Z,2.07
2023-01-11T03:43:17.886Z,1.93
2023-01-11T03:45:57.553Z,2.05
2023-01-11T03:48:39.896Z,2.02
2023-01-11T03:51:12.541Z,2.11
2023-01-11T03:53:44.447Z,2.15
2023-01-11T03:56:15.404Z,2.23
2023-01-11T03:58:42.769Z,2.25
2023-01-11T04:01:12.381Z,2.18
2023-01-11T04:03:39.447Z,2.10
2023-01-11T04:06:10.708Z,2.06
2023-01-11T04:08:37.900Z,2.13
2023-01-11T04:11:05.565Z,2.18
2023-01-11T04:13:34.098Z,2.17
2023-01-11T04:16:01.945Z,2.18
2023-01-11T04:18:29.273Z,2.00
2023-01-11T04:20:56.760Z,2.17
2023-01-11T04:23:23.983Z,2.01
2023-01-11T04:25:51.581Z,2.16
2023-01-11T04:28:19.140Z,2.16
2023-01-11T04:30:49.336Z,2.16
2023-01-11T04:33:16.424Z,2.11
2023-01-11T04:35:44.696Z,2.14
2023-01-11T04:38:12.201Z,2.11
2023-01-11T04:40:39.591Z,2.15
2023-01-11T04:43:06.753Z,2.11
2023-01-11T04:45:34.182Z,2.15
2023-01-11T04:48:01.421Z,2.14
2023-01-11T04:50:28.916Z,2.07
2023-01-11T04:52:58.217Z,2.12
2023-01-11T04:55:25.500Z,2.02
2023-01-11T04:57:52.592Z,2.11
2023-01-11T05:00:20.335Z,2.08
2023-01-11T05:02:47.413Z,2.03
2023-01-11T05:05:14.910Z,2.10
2023-01-11T05:07:41.969Z,2.08
2023-01-11T05:10:09.825Z,2.12
2023-01-11T05:12:36.987Z,2.02
2023-01-11T05:15:05.205Z,2.08
2023-01-11T05:17:32.347Z,2.01
2023-01-11T05:20:00.323Z,2.10
2023-01-11T05:22:27.669Z,2.06
2023-01-11T05:24:55.056Z,2.03
2023-01-11T05:27:22.056Z,2.08
2023-01-11T05:29:49.422Z,2.08
2023-01-11T05:32:16.510Z,2.06
2023-01-11T05:34:43.863Z,1.97
2023-01-11T05:37:10.946Z,2.00
2023-01-11T05:39:38.348Z,2.08
2023-01-11T05:42:05.543Z,1.98
2023-01-11T05:44:51.836Z,1.90
2023-01-11T05:47:19.116Z,1.90
2023-01-11T05:49:46.467Z,1.93
2023-01-11T05:52:13.588Z,1.89
2023-01-11T05:54:40.941Z,1.91
2023-01-11T05:57:11.519Z,1.92
2023-01-11T05:59:38.945Z,1.97
2023-01-11T06:02:06.558Z,1.94
2023-01-11T06:04:34.642Z,1.93
2023-01-11T06:07:01.735Z,1.94
2023-01-11T06:09:29.241Z,1.90
2023-01-11T06:11:56.362Z,1.82
2023-01-11T06:14:23.764Z,1.77
2023-01-11T06:16:50.911Z,1.82
2023-01-11T06:19:19.199Z,1.82
2023-01-11T06:21:46.520Z,1.88
2023-01-11T06:24:14.031Z,1.92
2023-01-11T06:26:41.145Z,1.87
2023-01-11T06:29:08.538Z,1.95
2023-01-11T06:31:35.857Z,1.87
2023-01-11T06:34:03.155Z,1.93
2023-01-11T06:36:30.237Z,1.87
2023-01-11T06:38:57.611Z,1.98
2023-01-11T06:41:24.659Z,2.14
2023-01-11T06:43:51.939Z,2.07
2023-01-11T06:46:19.374Z,2.07
2023-01-11T06:48:47.386Z,2.16
2023-01-11T06:51:15.838Z,2.10
2023-01-11T06:53:44.115Z,2.21
2023-01-11T06:56:14.095Z,2.23
2023-01-11T06:58:42.012Z,2.30
2023-01-11T07:01:09.269Z,2.31
2023-01-11T07:03:36.765Z,2.21
2023-01-11T07:06:04.428Z,2.28
2023-01-11T07:08:31.868Z,2.28
2023-01-11T07:10:58.967Z,2.28
2023-01-11T07:13:26.530Z,2.33
2023-01-11T07:15:57.243Z,2.38
2023-01-11T07:18:24.752Z,2.34
2023-01-11T07:20:52.124Z,2.41
2023-01-11T07:23:19.668Z,2.38
2023-01-11T07:25:49.113Z,2.40
2023-01-11T07:28:16.550Z,2.43
2023-01-11T07:30:59.971Z,2.54
2023-01-11T07:33:27.877Z,2.55
2023-01-11T07:35:55.125Z,2.48
2023-01-11T07:38:23.088Z,2.53
2023-01-11T07:40:50.238Z,2.62
2023-01-11T07:43:23.538Z,2.63
2023-01-11T07:45:52.760Z,2.71
2023-01-11T07:48:26.402Z,2.80
2023-01-11T07:50:54.342Z,2.84
2023-01-11T07:53:25.502Z,2.80
2023-01-11T07:55:55.164Z,2.77
2023-01-11T07:58:22.587Z,2.76
2023-01-11T08:00:49.661Z,2.74
2023-01-11T08:03:17.147Z,2.80
2023-01-11T08:05:48.868Z,2.90
2023-01-11T08:08:16.225Z,2.96
2023-01-11T08:10:43.234Z,2.92
2023-01-11T08:13:33.389Z,2.96
2023-01-11T08:16:00.551Z,3.00
2023-01-11T08:18:28.007Z,2.97
2023-01-11T08:20:55.029Z,2.98
2023-01-11T08:23:22.459Z,2.98
2023-01-11T08:25:49.516Z,3.06
2023-01-11T08:28:16.853Z,2.97
2023-01-11T08:30:44.375Z,3.01
2023-01-11T08:33:11.921Z,3.14
2023-01-11T08:35:39.455Z,3.12
2023-01-11T08:38:07.582Z,3.20
2023-01-11T08:40:35.134Z,3.15
2023-01-11T08:43:03.046Z,3.22
2023-01-11T08:45:30.140Z,3.25
2023-01-11T08:47:59.377Z,3.18
2023-01-11T08:50:26.438Z,3.17
2023-01-11T08:52:53.828Z,3.22
2023-01-11T08:55:20.859Z,3.30
2023-01-11T08:57:48.215Z,3.32
2023-01-11T09:00:15.978Z,3.36
2023-01-11T09:02:45.559Z,3.37
2023-01-11T09:05:12.892Z,3.47
2023-01-11T09:07:40.452Z,3.44
2023-01-11T09:10:08.068Z,3.53
2023-01-11T09:12:35.497Z,3.54
2023-01-11T09:15:05.854Z,3.53
2023-01-11T09:17:34.196Z,3.61
2023-01-11T09:20:01.650Z,3.70
2023-01-11T09:22:29.660Z,3.66
2023-01-11T09:24:59.031Z,3.71
2023-01-11T09:27:26.621Z,3.63
2023-01-11T09:29:53.729Z,3.68
2023-01-11T09:32:21.295Z,3.58
2023-01-11T09:34:49.660Z,3.64
2023-01-11T09:37:17.220Z,3.62
2023-01-11T09:39:44.800Z,3.64
2023-01-11T09:42:41.150Z,3.66
2023-01-11T09:45:18.753Z,3.74
2023-01-11T09:48:17.435Z,3.80
2023-01-11T09:50:48.417Z,3.78
2023-01-11T09:53:37.200Z,3.85
2023-01-11T09:56:10.327Z,3.90
2023-01-11T09:58:57.327Z,3.84
2023-01-11T10:01:47.576Z,3.84
2023-01-11T10:04:36.197Z,3.95
2023-01-11T10:07:27.721Z,4.00
2023-01-11T10:18:42.927Z,4.14
2023-01-11T10:19:41.238Z,4.09
2023-01-11T10:22:17.904Z,4.16
2023-01-11T10:25:16.695Z,4.12
2023-01-11T10:27:58.921Z,4.18
2023-01-11T10:30:57.572Z,4.06
2023-01-11T10:34:16.122Z,4.05
2023-01-11T10:37:25.576Z,4.22
2023-01-11T10:40:20.725Z,4.23
2023-01-11T10:42:59.969Z,4.24
2023-01-11T10:45:37.575Z,4.19
2023-01-11T10:48:44.068Z,4.28
2023-01-11T10:51:25.325Z,4.31
2023-01-11T10:54:12.528Z,4.41
2023-01-11T10:57:02.536Z,4.27
2023-01-11T10:59:36.656Z,4.31
2023-01-11T11:02:23.825Z,4.39
2023-01-11T11:05:05.071Z,4.43
2023-01-11T11:07:50.039Z,4.38
2023-01-11T11:10:29.389Z,4.37
2023-01-11T11:13:10.117Z,4.43
2023-01-11T11:15:43.453Z,4.39
2023-01-11T11:18:11.404Z,4.35
2023-01-11T11:20:38.633Z,4.39
2023-01-11T11:23:06.265Z,4.30
2023-01-11T11:25:42.568Z,4.34
2023-01-11T11:28:22.924Z,4.39
2023-01-11T11:30:54.016Z,4.37
2023-01-11T11:33:31.002Z,4.45
2023-01-11T11:36:05.728Z,4.36
2023-01-11T11:38:41.769Z,4.36
2023-01-11T11:41:17.349Z,4.43
2023-01-11T11:43:48.481Z,4.38
2023-01-11T11:46:22.713Z,4.42
2023-01-11T11:49:10.570Z,4.31
2023-01-11T11:51:39.324Z,4.35
2023-01-11T11:54:06.840Z,4.34
2023-01-11T11:56:35.338Z,4.32
2023-01-11T11:59:09.272Z,4.35
2023-01-11T12:01:39.974Z,4.36
2023-01-11T12:04:13.619Z,4.29
2023-01-11T12:06:41.687Z,4.38
2023-01-11T12:09:31.384Z,4.33
2023-01-11T12:11:59.445Z,4.45
2023-01-11T12:14:35.325Z,4.36
2023-01-11T12:17:25.149Z,4.34
2023-01-11T12:19:52.605Z,4.38
2023-01-11T12:22:25.343Z,4.27
2023-01-11T12:25:15.795Z,4.33
2023-01-11T12:27:54.977Z,4.29
2023-01-11T12:30:31.074Z,4.26
2023-01-11T12:33:32.927Z,4.27
2023-01-11T12:36:45.218Z,4.26
2023-01-11T12:39:25.049Z,4.25
2023-01-11T12:42:11.298Z,4.30
2023-01-11T12:45:03.530Z,4.31
2023-01-11T12:47:43.224Z,4.32
2023-01-11T12:50:13.046Z,4.18
2023-01-11T12:53:04.543Z,4.26
2023-01-11T12:55:36.059Z,4.23
2023-01-11T12:58:14.723Z,4.22
2023-01-11T13:01:19.451Z,4.27
2023-01-11T13:04:05.910Z,4.25
2023-01-11T13:06:58.962Z,4.29
2023-01-11T13:10:05.100Z,4.25
2023-01-11T13:12:45.818Z,4.23
2023-01-11T13:15:41.953Z,4.24
2023-01-11T13:18:27.254Z,4.27
2023-01-11T13:21:09.051Z,4.21
2023-01-11T13:23:40.142Z,4.23
2023-01-11T13:26:31.843Z,4.27
2023-01-11T13:29:07.916Z,4.19
2023-01-11T13:31:36.432Z,4.23
2023-01-11T13:34:19.699Z,4.23
2023-01-11T13:36:54.047Z,4.18
2023-01-11T13:39:32.365Z,4.30
2023-01-11T13:42:05.131Z,4.14
2023-01-11T13:44:42.522Z,4.26
2023-01-11T13:47:17.303Z,4.23
2023-01-11T13:49:53.920Z,4.31
2023-01-11T13:52:37.678Z,4.33
2023-01-11T13:55:24.848Z,4.37
2023-01-11T13:58:03.555Z,4.28
2023-01-11T14:00:41.184Z,4.28
2023-01-11T14:03:14.508Z,4.31
2023-01-11T14:05:58.328Z,4.22
2023-01-11T14:08:47.701Z,4.28
2023-01-11T14:11:50.287Z,4.31
2023-01-11T14:14:37.467Z,4.32
2023-01-11T14:17:04.730Z,4.29
2023-01-11T14:19:53.708Z,4.26
2023-01-11T14:22:32.934Z,4.27
2023-01-11T14:25:06.980Z,4.37
2023-01-11T14:27:52.527Z,4.29
2023-01-11T14:30:34.994Z,4.30
2023-01-11T14:33:18.141Z,4.35
2023-01-11T14:35:59.077Z,4.39
2023-01-11T14:38:38.228Z,4.35
2023-01-11T14:41:30.285Z,4.33
2023-01-11T14:44:03.324Z,4.28
2023-01-11T14:47:01.773Z,4.27
2023-01-11T14:49:54.011Z,4.30
2023-01-11T14:52:38.595Z,4.29
2023-01-11T14:55:16.270Z,4.35
2023-01-11T14:58:00.435Z,4.34
2023-01-11T15:00:27.986Z,4.31
2023-01-11T15:03:01.231Z,4.40
2023-01-11T15:05:32.791Z,4.35
2023-01-11T15:08:15.309Z,4.34
2023-01-11T15:10:51.792Z,4.37
2023-01-11T15:13:35.238Z,4.29
2023-01-11T15:16:45.226Z,4.42
2023-01-11T15:19:34.089Z,4.27
2023-01-11T15:22:05.200Z,4.37
2023-01-11T15:24:42.436Z,4.37
2023-01-11T15:27:32.110Z,4.39
2023-01-11T15:30:01.120Z,4.31
2023-01-11T15:32:30.547Z,4.34
2023-01-11T15:35:17.954Z,4.31
2023-01-11T15:37:58.410Z,4.31
2023-01-11T15:40:29.083Z,4.36
2023-01-11T15:43:26.752Z,4.31
2023-01-11T15:46:32.280Z,4.34
2023-01-11T15:49:33.037Z,4.35
2023-01-11T15:52:22.060Z,4.37
2023-01-11T15:55:11.158Z,4.34
2023-01-11T15:58:00.370Z,4.36
2023-01-11T16:00:55.490Z,4.35
2023-01-11T16:04:01.163Z,4.48
2023-01-11T16:06:42.701Z,4.36
2023-01-11T16:09:47.702Z,4.43
2023-01-11T16:12:36.051Z,4.49
2023-01-11T16:15:30.530Z,4.46
2023-01-11T16:18:05.149Z,4.43
2023-01-11T16:20:32.552Z,4.47
2023-01-11T16:23:05.419Z,4.45
2023-01-11T16:25:40.144Z,4.49
2023-01-11T16:28:12.628Z,4.56
2023-01-11T16:30:41.201Z,4.56
2023-01-11T16:33:22.271Z,4.51
2023-01-11T16:35:50.109Z,4.43
2023-01-11T16:38:22.127Z,4.54
2023-01-11T16:40:53.409Z,4.46
2023-01-11T16:43:27.771Z,4.55
2023-01-11T16:45:55.821Z,4.46
2023-01-11T16:48:30.494Z,4.53
2023-01-11T16:51:09.063Z,4.54
2023-01-11T16:53:41.986Z,4.46
2023-01-11T16:56:22.129Z,4.50
2023-01-11T16:59:21.558Z,4.48
2023-01-11T17:01:59.326Z,4.54
2023-01-11T17:04:35.731Z,4.51
2023-01-11T17:07:26.479Z,4.54
2023-01-11T17:09:53.658Z,4.47
2023-01-11T17:12:26.346Z,4.53
2023-01-11T17:15:08.527Z,4.58
2023-01-11T17:17:37.505Z,4.56
2023-01-11T17:20:15.836Z,4.57
2023-01-11T17:22:43.917Z,4.52
2023-01-11T17:25:20.127Z,4.52
2023-01-11T17:28:02.848Z,4.56
2023-01-11T17:30:31.023Z,4.54
2023-01-11T17:32:59.708Z,4.57
2023-01-11T17:35:30.510Z,4.61
2023-01-11T17:38:02.234Z,4.50
2023-01-11T17:40:32.010Z,4.55
2023-01-11T17:43:40.239Z,4.51
2023-01-11T17:46:09.555Z,4.57
2023-01-11T17:48:37.131Z,4.51
2023-01-11T17:51:05.698Z,4.56
2023-01-11T17:53:35.215Z,4.51
2023-01-11T17:56:04.949Z,4.64
2023-01-11T17:58:37.229Z,4.56
2023-01-11T18:01:04.856Z,4.61
2023-01-11T18:03:43.647Z,4.59
2023-01-11T18:06:32.961Z,4.60
2023-01-11T18:09:03.793Z,4.63
2023-01-11T18:11:36.943Z,4.70
2023-01-11T18:14:08.934Z,4.62
2023-01-11T18:16:36.344Z,4.60
2023-01-11T18:19:23.693Z,4.64
2023-01-11T18:21:53.428Z,4.45
2023-01-11T18:24:31.505Z,4.33
2023-01-11T18:27:07.912Z,4.11
2023-01-11T18:29:39.048Z,4.04
2023-01-11T18:32:11.352Z,4.04
2023-01-11T18:34:40.211Z,3.87
2023-01-11T18:37:08.141Z,4.04
2023-01-11T18:39:36.667Z,3.85
2023-01-11T18:42:08.378Z,3.81
2023-01-11T18:44:38.942Z,3.97
2023-01-11T18:47:15.268Z,3.87
2023-01-11T18:49:44.315Z,3.84
2023-01-11T18:52:12.711Z,3.83
2023-01-11T18:54:41.374Z,3.72
2023-01-11T18:57:09.054Z,3.80
2023-01-11T18:59:38.079Z,3.70
2023-01-11T19:02:17.959Z,3.69
2023-01-11T19:04:46.962Z,3.73
2023-01-11T19:07:15.714Z,3.64
2023-01-11T19:09:45.192Z,3.79
2023-01-11T19:12:13.865Z,3.73
2023-01-11T19:14:42.357Z,3.64
2023-01-11T19:17:13.456Z,3.62
2023-01-11T19:19:41.781Z,3.65
2023-01-11T19:22:11.478Z,3.62
2023-01-11T19:24:40.168Z,3.65
2023-01-11T19:27:08.130Z,3.62
2023-01-11T19:29:36.005Z,3.64
2023-01-11T19:32:04.462Z,3.69
2023-01-11T19:34:34.319Z,3.66
2023-01-11T19:37:03.328Z,3.63
2023-01-11T19:39:36.579Z,3.78
2023-01-11T19:42:04.873Z,3.80
2023-01-11T19:44:35.464Z,3.64
2023-01-11T19:47:11.453Z,3.79
2023-01-11T19:49:48.121Z,3.62
2023-01-11T19:52:27.309Z,3.61
2023-01-11T19:55:00.567Z,3.68
2023-01-11T19:57:35.623Z,3.70
2023-01-11T20:00:09.314Z,3.69
2023-01-11T20:02:40.910Z,3.77
2023-01-11T20:05:09.843Z,3.80
2023-01-11T20:07:37.757Z,3.72
2023-01-11T20:10:10.154Z,3.78
2023-01-11T20:12:38.563Z,3.73
2023-01-11T20:15:07.685Z,3.70
2023-01-11T20:17:37.937Z,3.80
2023-01-11T20:20:07.168Z,3.87
2023-01-11T20:22:34.779Z,3.75
2023-01-11T20:25:03.040Z,3.65
2023-01-11T20:27:31.119Z,3.58
2023-01-11T20:29:59.739Z,3.59
2023-01-11T20:32:41.020Z,3.73
2023-01-11T20:35:10.589Z,3.70
2023-01-11T20:37:38.316Z,3.79
2023-01-11T20:40:07.899Z,3.78
2023-01-11T20:42:35.971Z,3.84
2023-01-11T20:45:04.452Z,3.80
2023-01-11T20:47:32.736Z,3.73
2023-01-11T20:50:01.477Z,3.84
2023-01-11T20:52:28.968Z,3.79
2023-01-11T20:54:56.951Z,3.73
2023-01-11T20:57:24.155Z,3.95
2023-01-11T20:59:52.358Z,3.74
2023-01-11T21:02:19.960Z,3.82
2023-01-11T21:04:48.640Z,3.81
2023-01-11T21:07:17.416Z,4.03
2023-01-11T21:09:45.549Z,3.96
2023-01-11T21:12:12.911Z,3.86
2023-01-11T21:14:40.846Z,3.87
2023-01-11T21:17:09.652Z,4.01
2023-01-11T21:19:37.427Z,3.95
2023-01-11T21:22:05.401Z,3.97
2023-01-11T21:24:33.309Z,4.08
2023-01-11T21:27:00.735Z,3.88
2023-01-11T21:29:28.735Z,3.98
2023-01-11T21:31:56.866Z,3.89
2023-01-11T21:34:24.663Z,3.97
2023-01-11T21:36:52.325Z,4.03
2023-01-11T21:39:19.902Z,4.04
2023-01-11T21:41:56.276Z,3.94
2023-01-11T21:44:33.916Z,3.92
2023-01-11T21:47:03.180Z,4.02
2023-01-11T21:49:32.040Z,3.99
2023-01-11T21:52:00.058Z,4.03
2023-01-11T21:54:27.828Z,4.08
2023-01-11T21:56:55.308Z,3.99
2023-01-11T21:59:24.114Z,4.09
2023-01-11T22:01:51.827Z,4.22
2023-01-11T22:04:20.970Z,4.07
2023-01-11T22:06:54.828Z,4.08
2023-01-11T22:09:27.317Z,4.20
2023-01-11T22:11:55.462Z,4.10
2023-01-11T22:14:23.357Z,4.13
2023-01-11T22:16:51.152Z,4.16
2023-01-11T22:19:18.944Z,4.12
2023-01-11T22:21:46.154Z,4.20
2023-01-11T22:24:13.855Z,4.16
2023-01-11T22:26:41.323Z,4.31
2023-01-11T22:29:12.409Z,4.15
2023-01-11T22:31:46.573Z,4.21
2023-01-11T22:34:15.573Z,4.19
2023-01-11T22:36:44.015Z,4.31
2023-01-11T22:39:13.218Z,4.24
2023-01-11T22:41:40.704Z,4.31
2023-01-11T22:44:09.506Z,4.31
2023-01-11T22:46:37.167Z,4.31
2023-01-11T22:49:08.646Z,4.36
2023-01-11T22:51:36.110Z,4.35
2023-01-11T22:54:04.341Z,4.47
2023-01-11T22:56:32.059Z,4.41
2023-01-11T22:58:59.799Z,4.47
2023-01-11T23:01:33.028Z,4.53
2023-01-11T23:04:01.304Z,4.47
2023-01-11T23:06:37.122Z,4.49
2023-01-11T23:09:07.488Z,4.53
2023-01-11T23:11:55.095Z,4.59
2023-01-11T23:14:26.818Z,4.60
2023-01-11T23:16:54.062Z,4.54
2023-01-11T23:19:21.682Z,4.64
2023-01-11T23:21:48.948Z,4.67
2023-01-11T23:24:17.066Z,4.71
2023-01-11T23:26:45.463Z,4.58
2023-01-11T23:29:13.997Z,4.62
2023-01-11T23:31:42.904Z,4.72
2023-01-11T23:34:11.803Z,4.70
2023-01-11T23:36:41.287Z,4.70
2023-01-11T23:39:13.268Z,4.69
2023-01-11T23:41:59.595Z,4.71
2023-01-11T23:44:27.258Z,4.72
2023-01-11T23:47:12.813Z,4.83
2023-01-11T23:49:40.606Z,4.91
2023-01-11T23:52:07.779Z,4.81
2023-01-11T23:54:35.458Z,4.81
2023-01-11T23:57:04.295Z,4.92
2023-01-11T23:59:32.562Z,4.80
